Flight Track Log - Related Links

Times and Time Zones

All times are in EDT time to prevent confusion due to time zone crossing. See the OPT330 flight status page for this flight to view local times or setup timezone preferences in your user account.

Time Position Orientation Groundspeed Altitude Reporting Facility
EDT Latitude Longitude Course Direction KTS MPH feet Rate Location/Type
Tue 07:12:50 AM 41.1820 -73.9270 309° West 237 273 15,500  Level FlightAware ADS-B (KSNC)
Tue 07:13:38 AM 41.2040 -73.9976 271° West 282 325 16,000 270 Climbing FlightAware ADS-B (KSNC)
Tue 07:14:41 AM 41.2088 -74.1069 273° West 285 328 16,000 839 Level FlightAware ADS-B (KSNC)
Tue 07:15:11 AM 41.2111 -74.1600 273° West 288 331 17,300 2,474 Climbing FlightAware ADS-B (KSNC)
Tue 07:16:18 AM 41.2162 -74.2818 273° West 322 371 20,000 1,486 Climbing FlightAware ADS-B (KSNC)
Tue 07:17:00 AM 41.2457 -74.3561 307° West 334 384 20,000  Level FlightAware ADS-B (KSNC)
Tue 07:18:45 AM 41.3367 -74.5289 305° West 320 368 20,000  Level FlightAware ADS-B (KSNC)
Tue 07:19:18 AM 41.3558 -74.5656 305° West 318 366 20,000  Level FlightAware ADS-B (KSNC)
Tue 07:20:03 AM 41.3958 -74.6483 305° West 327 376 20,000  Level New York Center
Tue 07:21:04 AM 41.4467 -74.7453 305° West 327 376 20,000  Level New York Center
Tue 07:22:04 AM 41.4975 -74.8397 306° West 322 371 20,000  Level New York Center
Tue 07:23:04 AM 41.5483 -74.9344 306° West 317 365 20,000  Level New York Center
Tue 07:24:04 AM 41.5969 -75.0317 304° West 317 365 20,000  Level New York Center
Tue 07:25:04 AM 41.6456 -75.1292 304° West 317 365 20,000  Level New York Center
Tue 07:26:03 AM 41.6961 -75.2242 305° West 317 365 20,000  Level New York Center
Tue 07:27:03 AM 41.7464 -75.3247 304° West 317 365 20,000  Level New York Center
Tue 07:28:02 AM 41.7950 -75.4200 304° West 317 365 20,000  Level New York Center
Tue 07:29:04 AM 41.8431 -75.5150 304° West 317 365 20,000 -50 Level New York Center
Tue 07:30:03 AM 41.8911 -75.6133 303° West 317 365 19,900 -900 Descending New York Center
Tue 07:31:04 AM 41.9356 -75.7031 304° West 322 371 18,200 -1,765 Descending New York Center
Tue 07:32:02 AM 41.9856 -75.7986 305° West 322 371 16,400 -1,916 Descending New York Center
Tue 07:33:03 AM 42.0372 -75.9031 304° West 316 364 14,400 -1,785 Descending New York Center
Tue 07:34:03 AM 42.0794 -75.9875 304° West 316 364 12,800 -1,686 Descending New York Center
Tue 07:35:04 AM 42.1253 -76.0806 304° West 311 358 11,000 -1,750 Descending New York Center
Tue 07:36:03 AM 42.1758 -76.1575 312° West 294 338 9,300 -1,664 Descending New York Center
Tue 07:37:03 AM 42.2319 -76.2094 326° Northwest 271 312 7,700 -1,650 Descending New York Center
Tue 07:38:03 AM 42.2917 -76.2678 324° Northwest 260 299 6,000 -1,765 Descending New York Center
Tue 07:39:02 AM 42.3519 -76.3150 330° Northwest 247 284 4,200 -1,388 Descending New York Center
Tue 07:40:04 AM 42.4067 -76.3447 338° Northwest 230 265 3,200 -700 Descending New York Center
Tue 07:41:02 AM 42.4300 -76.3778 314° West 206 237 2,800 3,900 Descending New York Center
Tue 07:42:04 AM 42.4739 -76.4181 326° Northwest 172 198 11,000 4,134 Climbing New York Center
Tue 07:43:01 AM 42.5136 -76.4581 323° Northwest 172 198 11,000  Level New York Center
Tue 07:44:02 AM 42.5536 -76.4953 326° Northwest 172 198 11,000  Level New York Center
Tue 07:45:03 AM 42.5933 -76.5353 323° Northwest 172 198 11,000  Level New York Center

Login

Don't have an account? Register now (free) for customized features, flight alerts, and more!